Time;durP1;ratioP1;P1;durP2;ratioP2;P2;SDS_P1;SDS_P2;PMS_P1;PMS_P2;Temp;Humidity;BMP_temperature;BMP_pressure;BME280_temperature;BME280_humidity;BME280_pressure;Samples;Min_cycle;Max_cycle;Signal;HPM_P1;HPM_P2
2022/11/14 00:01:09;;;;;;;17.23;12.90;;;7.20;99.90;8.70;97695.00;;;;5053539;28;20284;-68
2022/11/14 00:03:58;;;;;;;18.97;14.87;;;7.20;99.90;8.80;97688.00;;;;5046220;28;20632;-68
2022/11/14 00:06:48;;;;;;;17.90;13.40;;;7.20;99.90;8.80;97679.00;;;;5048067;28;20244;-68
2022/11/14 00:09:37;;;;;;;19.20;13.00;;;7.20;99.90;8.80;97670.00;;;;5052504;28;20229;-68
2022/11/14 00:12:26;;;;;;;18.87;13.30;;;7.20;99.90;8.50;97672.00;;;;5049528;28;20561;-68
2022/11/14 00:15:16;;;;;;;19.23;12.73;;;7.20;99.90;8.40;97683.00;;;;5041160;28;20221;-68
2022/11/14 00:18:05;;;;;;;15.70;12.87;;;7.20;99.90;8.40;97674.00;;;;5039663;28;20209;-69
2022/11/14 00:20:54;;;;;;;19.80;13.60;;;7.20;99.90;8.50;97674.00;;;;5052534;28;20627;-68
2022/11/14 00:23:44;;;;;;;16.07;12.03;;;7.20;99.90;8.60;97665.00;;;;5053427;28;20231;-68
2022/11/14 00:26:33;;;;;;;19.63;14.03;;;7.20;99.90;8.80;97663.00;;;;5041744;28;20198;-68
2022/11/14 00:29:22;;;;;;;22.30;13.57;;;7.20;99.90;8.80;97648.00;;;;5040556;28;20224;-67
2022/11/14 00:32:11;;;;;;;19.63;14.07;;;7.20;99.90;8.90;97645.00;;;;5052649;28;20259;-68
2022/11/14 00:34:59;;;;;;;17.60;13.33;;;7.30;99.90;8.80;97646.00;;;;5051455;28;20340;-68
2022/11/14 00:37:48;;;;;;;18.27;11.73;;;7.30;99.90;8.80;97640.00;;;;5039353;28;20303;-68
2022/11/14 00:40:38;;;;;;;19.53;13.20;;;7.30;99.90;8.60;97645.00;;;;5042744;28;20201;-68
2022/11/14 00:43:27;;;;;;;18.73;12.30;;;7.30;99.90;8.60;97649.00;;;;5041677;28;20205;-68
2022/11/14 00:46:16;;;;;;;17.13;12.77;;;7.30;99.90;8.50;97653.00;;;;5050379;28;20323;-68
2022/11/14 00:49:05;;;;;;;16.47;13.10;;;7.30;99.90;8.50;97648.00;;;;5052144;28;20219;-68
2022/11/14 00:51:53;;;;;;;17.50;11.37;;;7.30;99.90;8.50;97646.00;;;;5050855;28;20254;-68
2022/11/14 00:54:42;;;;;;;16.33;12.40;;;7.30;99.90;8.30;97633.00;;;;5051720;28;20351;-68
2022/11/14 00:57:32;;;;;;;18.63;12.90;;;7.20;99.90;8.20;97627.00;;;;5037784;28;20278;-68
2022/11/14 01:00:21;;;;;;;20.97;14.63;;;7.10;99.90;8.30;97641.00;;;;5050801;28;20209;-68
2022/11/14 01:03:10;;;;;;;19.53;14.43;;;7.10;99.90;8.40;97644.00;;;;5047530;28;20240;-68
2022/11/14 01:06:04;;;;;;;23.23;15.80;;;7.10;99.90;8.60;97646.00;;;;5044386;28;20228;-68
2022/11/14 01:08:52;;;;;;;23.40;15.23;;;7.10;99.90;8.70;97643.00;;;;5049995;28;20197;-68
2022/11/14 01:11:41;;;;;;;20.43;14.37;;;7.20;99.90;8.40;97638.00;;;;5045243;28;20200;-68
2022/11/14 01:14:31;;;;;;;19.73;13.83;;;7.20;99.90;8.60;97645.00;;;;5038652;28;20228;-68
2022/11/14 01:17:20;;;;;;;19.57;13.63;;;7.20;99.90;8.60;97636.00;;;;5048722;28;20201;-68
2022/11/14 01:20:09;;;;;;;19.03;14.13;;;7.20;99.90;8.30;97634.00;;;;5042846;28;20706;-68
2022/11/14 01:22:58;;;;;;;18.37;13.03;;;7.20;99.90;8.40;97634.00;;;;5048162;28;20700;-68
2022/11/14 01:25:47;;;;;;;15.93;11.90;;;7.20;99.90;8.30;97639.00;;;;5046531;28;20221;-68
2022/11/14 01:28:36;;;;;;;18.93;12.60;;;7.20;99.90;8.40;97635.00;;;;5043256;28;20204;-68
2022/11/14 01:31:26;;;;;;;17.77;11.83;;;7.10;99.90;8.50;97636.00;;;;5044017;28;20648;-68
2022/11/14 01:34:15;;;;;;;14.90;11.83;;;7.20;99.90;8.70;97639.00;;;;5039114;28;20205;-68
2022/11/14 01:37:04;;;;;;;23.80;14.60;;;7.20;99.90;8.80;97628.00;;;;5049382;28;20255;-68
2022/11/14 01:39:52;;;;;;;23.00;14.13;;;7.20;99.90;8.80;97629.00;;;;5051357;28;20196;-67
2022/11/14 01:42:41;;;;;;;17.63;13.13;;;7.30;99.90;8.80;97621.00;;;;5052232;28;20236;-68
2022/11/14 01:45:52;;;;;;;20.27;13.67;;;7.30;99.90;8.80;97633.00;;;;5051412;28;20710;-68
2022/11/14 01:48:49;;;;;;;15.07;11.83;;;7.30;99.90;8.90;97627.00;;;;5033838;28;20616;-68
2022/11/14 01:51:42;;;;;;;17.77;12.83;;;7.40;99.90;8.90;97627.00;;;;5042683;28;20229;-68
2022/11/14 01:54:35;;;;;;;16.10;11.40;;;7.40;99.90;8.90;97628.00;;;;5037814;28;20373;-68
2022/11/14 01:57:28;;;;;;;17.40;12.77;;;7.40;99.90;8.90;97627.00;;;;5051199;28;20679;-68
2022/11/14 02:00:18;;;;;;;21.90;14.13;;;7.40;99.90;9.00;97627.00;;;;5050232;28;20704;-67
2022/11/14 02:03:06;;;;;;;16.27;12.43;;;7.40;99.90;9.00;97615.00;;;;5038155;28;20566;-68
2022/11/14 02:05:58;;;;;;;18.67;12.73;;;7.40;99.90;9.00;97618.00;;;;5046040;28;20684;-68
2022/11/14 02:08:48;;;;;;;17.60;12.60;;;7.50;99.90;9.00;97603.00;;;;5043928;28;20192;-68
2022/11/14 02:11:41;;;;;;;17.87;13.93;;;7.50;99.90;9.00;97596.00;;;;5038946;28;20614;-68
2022/11/14 02:14:30;;;;;;;18.20;12.40;;;7.50;99.90;8.90;97598.00;;;;5043729;28;20247;-68
2022/11/14 02:17:20;;;;;;;19.70;14.23;;;7.50;99.90;8.90;97601.00;;;;5046801;28;20227;-68
2022/11/14 02:20:27;;;;;;;19.63;14.53;;;7.50;99.90;8.90;97591.00;;;;5051082;28;20232;-67
2022/11/14 02:23:25;;;;;;;17.20;13.73;;;7.40;99.90;8.90;97582.00;;;;5049962;28;20221;-68
2022/11/14 02:26:18;;;;;;;21.57;14.77;;;7.40;99.90;8.90;97588.00;;;;5040809;28;20244;-68
2022/11/14 02:29:10;;;;;;;20.17;14.50;;;7.40;99.90;9.00;97590.00;;;;5045405;28;20212;-68
2022/11/14 02:31:59;;;;;;;22.07;15.07;;;7.40;99.90;8.90;97582.00;;;;5039525;28;20282;-68
2022/11/14 02:34:48;;;;;;;17.70;13.20;;;7.40;99.90;8.90;97577.00;;;;5030659;28;20283;-68
2022/11/14 02:37:38;;;;;;;16.30;11.90;;;7.40;99.90;8.90;97581.00;;;;5050430;28;20668;-68
2022/11/14 02:40:27;;;;;;;16.77;13.50;;;7.40;99.90;8.90;97567.00;;;;5049856;28;20345;-68
2022/11/14 02:43:15;;;;;;;22.00;13.93;;;7.50;99.90;8.90;97568.00;;;;5049884;28;20201;-68
2022/11/14 02:46:04;;;;;;;18.73;12.77;;;7.40;99.90;8.80;97578.00;;;;5050534;28;20220;-67
2022/11/14 02:48:53;;;;;;;15.87;13.40;;;7.50;99.90;8.90;97566.00;;;;5037618;28;20573;-68
2022/11/14 02:51:42;;;;;;;17.40;12.93;;;7.50;99.90;8.70;97562.00;;;;5044039;28;20221;-68
2022/11/14 02:54:32;;;;;;;18.57;13.67;;;7.40;99.90;8.60;97568.00;;;;5043811;28;20695;-67
2022/11/14 02:57:20;;;;;;;17.53;12.07;;;7.40;99.90;8.70;97568.00;;;;5049817;28;20217;-68
2022/11/14 03:00:10;;;;;;;17.83;13.33;;;7.30;99.90;8.90;97576.00;;;;5037950;28;20607;-68
2022/11/14 03:03:02;;;;;;;15.70;11.90;;;7.40;99.90;8.70;97561.00;;;;5049454;28;20196;-68
2022/11/14 03:05:52;;;;;;;13.93;11.23;;;7.40;99.90;8.30;97563.00;;;;5048776;28;20221;-68
2022/11/14 03:08:41;;;;;;;14.00;11.93;;;7.40;99.90;8.40;97570.00;;;;5047994;28;20205;-68
2022/11/14 03:11:31;;;;;;;22.07;13.73;;;7.30;99.90;8.50;97568.00;;;;5035052;28;20309;-68
2022/11/14 03:14:19;;;;;;;19.67;14.17;;;7.20;99.90;8.70;97561.00;;;;5041950;28;21053;-68
2022/11/14 03:17:08;;;;;;;18.63;13.33;;;7.30;99.90;8.70;97560.00;;;;5044613;28;20274;-68
2022/11/14 03:19:57;;;;;;;14.33;11.90;;;7.30;99.90;8.60;97565.00;;;;5049626;28;20201;-68
2022/11/14 03:22:45;;;;;;;18.40;11.90;;;7.30;99.90;8.60;97557.00;;;;5037221;28;20578;-68
2022/11/14 03:25:34;;;;;;;16.10;12.77;;;7.30;99.90;8.40;97557.00;;;;5047055;28;20219;-68
2022/11/14 03:28:24;;;;;;;15.27;12.67;;;7.30;99.90;8.40;97561.00;;;;5034684;28;20283;-68
2022/11/14 03:31:15;;;;;;;18.20;12.27;;;7.20;99.90;8.20;97567.00;;;;5050017;28;20262;-68
2022/11/14 03:34:03;;;;;;;16.67;12.47;;;7.20;99.90;8.20;97548.00;;;;5053884;28;20220;-68
2022/11/14 03:36:52;;;;;;;18.27;12.97;;;7.20;99.90;8.50;97556.00;;;;5051473;28;20201;-68
2022/11/14 03:39:41;;;;;;;14.90;11.97;;;7.20;99.90;8.70;97554.00;;;;5045882;28;20282;-68
2022/11/14 03:42:33;;;;;;;15.47;11.87;;;7.20;99.90;8.70;97556.00;;;;5043981;28;20217;-68
2022/11/14 03:45:23;;;;;;;15.30;12.07;;;7.20;99.90;8.70;97536.00;;;;5039121;28;20227;-68
2022/11/14 03:48:12;;;;;;;19.93;11.63;;;7.20;99.90;8.80;97526.00;;;;5052586;28;20211;-68
2022/11/14 03:51:01;;;;;;;15.83;12.50;;;7.20;99.90;8.60;97533.00;;;;5052348;28;20307;-68
2022/11/14 03:53:49;;;;;;;13.03;9.57;;;7.20;99.90;8.70;97521.00;;;;5052231;28;20258;-68
2022/11/14 03:56:38;;;;;;;15.47;11.83;;;7.30;99.90;8.70;97520.00;;;;5042184;28;20201;-68
2022/11/14 03:59:27;;;;;;;14.23;11.50;;;7.30;99.90;8.80;97522.00;;;;5046288;28;20293;-67
2022/11/14 04:02:17;;;;;;;14.67;11.80;;;7.30;99.90;8.60;97526.00;;;;5052079;28;20286;-68
2022/11/14 04:05:06;;;;;;;14.70;11.93;;;7.30;99.90;8.40;97531.00;;;;5053207;28;20232;-68
2022/11/14 04:07:55;;;;;;;14.57;9.90;;;7.20;99.90;8.30;97524.00;;;;5052711;28;20201;-67
2022/11/14 04:10:47;;;;;;;12.43;9.93;;;7.20;99.90;8.50;97537.00;;;;5052420;28;20246;-68
2022/11/14 04:13:35;;;;;;;16.57;10.40;;;7.20;99.90;8.40;97540.00;;;;5044317;28;20877;-68
2022/11/14 04:16:24;;;;;;;14.37;10.63;;;7.10;99.90;8.60;97536.00;;;;5047837;28;20200;-68
2022/11/14 04:19:14;;;;;;;16.47;11.27;;;7.20;99.90;8.80;97533.00;;;;5040214;28;20197;-68
2022/11/14 04:22:03;;;;;;;15.50;11.67;;;7.20;99.90;8.80;97534.00;;;;5050355;28;20205;-68
2022/11/14 04:24:52;;;;;;;14.33;12.13;;;7.20;99.90;8.80;97534.00;;;;5049867;28;20282;-68
2022/11/14 04:27:40;;;;;;;14.67;12.10;;;7.20;99.90;8.80;97535.00;;;;5036945;28;20200;-68
2022/11/14 04:30:29;;;;;;;16.10;11.63;;;7.30;99.90;8.80;97535.00;;;;5050526;28;20205;-68
2022/11/14 04:33:21;;;;;;;15.37;11.87;;;7.30;99.90;8.80;97535.00;;;;5052119;28;20216;-68
2022/11/14 04:36:11;;;;;;;17.83;13.37;;;7.30;99.90;8.90;97539.00;;;;5051212;28;20262;-68
2022/11/14 04:38:59;;;;;;;17.77;12.83;;;7.40;99.90;8.90;97540.00;;;;5048995;28;20219;-68
2022/11/14 04:41:48;;;;;;;19.23;13.83;;;9.10;99.90;8.90;97537.00;;;;5036467;28;20252;-68
2022/11/14 04:44:37;;;;;;;23.73;12.50;;;7.40;99.90;8.90;97551.00;;;;5043710;28;20252;-68
2022/11/14 04:47:25;;;;;;;16.70;12.80;;;7.40;99.90;8.90;97544.00;;;;5040949;28;20244;-67
2022/11/14 04:50:14;;;;;;;16.13;12.57;;;7.40;99.90;8.90;97536.00;;;;5038815;28;20202;-68
2022/11/14 04:53:05;;;;;;;23.33;12.30;;;7.40;99.90;9.00;97546.00;;;;5040874;28;20684;-68
2022/11/14 04:55:53;;;;;;;15.43;12.67;;;7.40;99.90;9.00;97553.00;;;;5051433;28;20254;-68
2022/11/14 04:58:42;;;;;;;17.60;12.77;;;7.50;99.90;9.00;97546.00;;;;5051503;28;20197;-68
2022/11/14 05:01:31;;;;;;;18.50;12.97;;;7.50;99.90;9.00;97544.00;;;;5042990;28;20201;-68
2022/11/14 05:04:19;;;;;;;16.40;12.70;;;7.50;99.90;8.60;97543.00;;;;5043942;28;20217;-68
2022/11/14 05:07:08;;;;;;;17.67;13.37;;;7.40;99.90;8.40;97540.00;;;;5043542;28;20243;-68
2022/11/14 05:09:58;;;;;;;17.67;13.13;;;7.40;99.90;8.20;97541.00;;;;5039810;28;20225;-68
2022/11/14 05:12:47;;;;;;;17.13;13.17;;;7.30;99.90;8.50;97534.00;;;;5050056;28;20227;-68
2022/11/14 05:15:36;;;;;;;17.87;13.60;;;7.20;99.90;8.70;97533.00;;;;5038580;28;20630;-68
2022/11/14 05:18:25;;;;;;;17.10;12.87;;;7.30;99.90;8.70;97535.00;;;;5039095;28;20305;-68
2022/11/14 05:21:15;;;;;;;18.63;12.23;;;7.30;99.90;8.60;97533.00;;;;5050956;28;20225;-68
2022/11/14 05:24:04;;;;;;;16.47;11.70;;;7.30;99.90;8.50;97533.00;;;;5051277;28;20750;-69
2022/11/14 05:26:54;;;;;;;13.50;11.00;;;7.30;99.90;8.30;97538.00;;;;5045540;28;20615;-68
2022/11/14 05:29:43;;;;;;;17.07;11.07;;;7.20;99.90;8.30;97534.00;;;;5040742;28;20204;-68
2022/11/14 05:32:31;;;;;;;15.80;12.47;;;7.20;99.90;8.50;97529.00;;;;5038708;28;20228;-68
2022/11/14 05:35:20;;;;;;;15.53;12.27;;;7.20;99.90;8.50;97529.00;;;;5049432;28;20220;-68
2022/11/14 05:38:09;;;;;;;16.57;11.40;;;7.20;99.90;8.50;97533.00;;;;5039218;28;20694;-68
2022/11/14 05:40:58;;;;;;;18.50;12.80;;;7.20;99.90;8.30;97533.00;;;;5044036;28;20216;-68
2022/11/14 05:43:48;;;;;;;13.77;12.00;;;7.20;99.90;8.30;97526.00;;;;5046900;28;20210;-68
2022/11/14 05:46:36;;;;;;;16.53;12.07;;;7.10;99.90;8.30;97533.00;;;;5041146;28;20227;-68
2022/11/14 05:49:25;;;;;;;15.63;11.87;;;7.10;99.90;8.60;97532.00;;;;5037974;28;20212;-68
2022/11/14 05:52:14;;;;;;;15.20;11.40;;;6.40;99.90;8.50;97533.00;;;;5048933;28;20256;-68
2022/11/14 05:55:02;;;;;;;15.67;11.70;;;7.10;99.90;8.60;97537.00;;;;5049053;28;20224;-67
2022/11/14 05:57:51;;;;;;;12.90;10.47;;;7.20;99.90;8.70;97528.00;;;;5035864;28;20231;-68
2022/11/14 06:00:41;;;;;;;15.13;11.87;;;7.20;99.90;8.70;97532.00;;;;5037231;28;20266;-68
2022/11/14 06:03:36;;;;;;;14.70;11.20;;;7.20;99.90;8.60;97532.00;;;;5050402;28;20226;-68
2022/11/14 06:06:25;;;;;;;15.10;12.27;;;7.20;99.90;8.70;97534.00;;;;5043001;28;20227;-68
2022/11/14 06:09:13;;;;;;;14.80;11.80;;;7.20;99.90;8.70;97531.00;;;;5039705;28;20197;-68
2022/11/14 06:12:05;;;;;;;16.87;12.60;;;7.30;99.90;8.70;97532.00;;;;5041844;28;20228;-68
2022/11/14 06:14:53;;;;;;;15.73;11.40;;;7.30;99.90;8.70;97532.00;;;;5040347;28;20221;-68
2022/11/14 06:17:43;;;;;;;15.80;11.60;;;7.30;99.90;8.70;97543.00;;;;5039294;28;20282;-68
2022/11/14 06:20:32;;;;;;;14.13;11.70;;;7.30;99.90;8.80;97540.00;;;;5050669;28;20773;-68
2022/11/14 06:23:21;;;;;;;14.37;11.33;;;7.30;99.90;8.80;97536.00;;;;5036666;28;20205;-68
2022/11/14 06:26:20;;;;;;;18.73;11.57;;;7.30;99.90;8.80;97537.00;;;;5045169;28;20225;-68
2022/11/14 06:29:10;;;;;;;14.67;11.67;;;7.30;99.90;8.80;97545.00;;;;5038501;28;20197;-68
2022/11/14 06:31:59;;;;;;;15.73;12.40;;;7.40;99.90;8.90;97552.00;;;;5036318;28;20306;-68
2022/11/14 06:34:49;;;;;;;17.03;12.53;;;7.40;99.90;9.00;97553.00;;;;5038140;28;20224;-68
2022/11/14 06:37:39;;;;;;;13.47;11.03;;;7.40;99.90;9.00;97555.00;;;;5036124;28;20211;-68
2022/11/14 06:40:27;;;;;;;14.67;11.70;;;7.50;99.90;9.00;97553.00;;;;5042101;28;20239;-68
2022/11/14 06:43:16;;;;;;;13.83;11.43;;;7.50;99.90;9.10;97544.00;;;;5040447;28;20210;-68
2022/11/14 06:46:06;;;;;;;15.13;11.23;;;7.50;99.90;9.10;97542.00;;;;5037935;28;20278;-68
2022/11/14 06:48:55;;;;;;;24.37;13.27;;;7.60;99.90;9.20;97552.00;;;;5045823;28;20726;-68
2022/11/14 06:51:45;;;;;;;16.27;12.17;;;7.60;99.90;9.20;97539.00;;;;5035603;28;20275;-68
2022/11/14 06:54:34;;;;;;;17.17;12.20;;;7.60;99.90;9.30;97542.00;;;;5031973;28;20224;-68
2022/11/14 06:57:23;;;;;;;21.17;12.80;;;7.70;99.90;9.30;97547.00;;;;5039645;28;20217;-68
2022/11/14 07:00:13;;;;;;;20.83;13.73;;;7.70;99.90;9.30;97543.00;;;;5033260;28;20263;-68
2022/11/14 07:03:01;;;;;;;23.83;11.77;;;7.70;99.90;9.40;97546.00;;;;5039301;28;20197;-68
2022/11/14 07:05:50;;;;;;;17.73;12.93;;;7.70;99.90;9.40;97556.00;;;;5048630;28;20216;-68
2022/11/14 07:08:40;;;;;;;16.67;11.27;;;7.80;99.90;9.50;97558.00;;;;5036128;28;20212;-68
2022/11/14 07:11:30;;;;;;;17.13;14.33;;;7.80;99.90;9.40;97560.00;;;;5038407;28;20209;-68
2022/11/14 07:14:19;;;;;;;18.73;12.37;;;7.80;99.90;9.40;97547.00;;;;5033885;28;20708;-68
2022/11/14 07:17:08;;;;;;;18.43;12.87;;;7.90;99.90;9.30;97545.00;;;;5041475;28;20742;-68
2022/11/14 07:19:56;;;;;;;20.57;12.87;;;7.90;99.90;9.10;97551.00;;;;5040948;28;20573;-68
2022/11/14 07:22:46;;;;;;;15.33;12.40;;;7.80;99.90;9.10;97552.00;;;;5042241;28;20557;-68
2022/11/14 07:25:36;;;;;;;15.63;12.30;;;7.80;99.90;9.00;97545.00;;;;5037743;28;20216;-68
2022/11/14 07:28:26;;;;;;;17.87;12.53;;;7.80;99.90;9.00;97539.00;;;;5042450;28;20208;-68
2022/11/14 07:31:18;;;;;;;19.00;11.67;;;7.70;99.90;9.10;97549.00;;;;5040732;28;20201;-68
2022/11/14 07:34:08;;;;;;;14.73;12.03;;;7.70;99.90;9.20;97534.00;;;;5036557;28;20604;-68
2022/11/14 07:36:56;;;;;;;17.73;13.37;;;7.80;99.90;9.20;97538.00;;;;5049169;28;20684;-68
2022/11/14 07:39:45;;;;;;;15.23;13.20;;;7.80;99.90;9.30;97541.00;;;;5049391;28;20610;-68
2022/11/14 07:42:35;;;;;;;14.33;11.90;;;7.80;99.90;9.40;97529.00;;;;5048942;28;20208;-68
2022/11/14 07:45:24;;;;;;;15.40;11.70;;;7.80;99.90;9.50;97534.00;;;;5048908;28;20220;-68
2022/11/14 07:48:13;;;;;;;14.83;11.63;;;7.90;99.90;9.60;97530.00;;;;5048580;28;20208;-68
2022/11/14 07:51:04;;;;;;;23.23;13.43;;;7.90;99.90;9.70;97522.00;;;;5047021;28;20240;-68
2022/11/14 07:53:53;;;;;;;22.20;14.83;;;8.00;99.90;9.70;97521.00;;;;5038853;28;20304;-68
2022/11/14 07:56:42;;;;;;;22.53;14.57;;;8.00;99.90;9.70;97521.00;;;;5037944;28;20742;-68
2022/11/14 07:59:32;;;;;;;16.53;13.33;;;8.10;99.90;9.80;97520.00;;;;5040126;28;20226;-68
2022/11/14 08:02:20;;;;;;;20.00;13.77;;;8.10;99.90;9.80;97523.00;;;;5035094;28;20208;-67
2022/11/14 08:05:09;;;;;;;18.57;15.63;;;8.10;99.90;9.90;97520.00;;;;5045715;28;20216;-68
2022/11/14 08:07:58;;;;;;;19.37;13.00;;;8.20;99.90;9.90;97528.00;;;;5043593;28;20205;-68
2022/11/14 08:10:47;;;;;;;20.43;15.10;;;8.20;99.90;10.00;97526.00;;;;5048584;28;20209;-67
2022/11/14 08:13:36;;;;;;;16.03;13.20;;;8.30;99.90;10.10;97532.00;;;;5038110;28;20308;-68
2022/11/14 08:16:26;;;;;;;16.77;13.90;;;8.30;99.90;10.20;97528.00;;;;5044492;28;20192;-68
2022/11/14 08:19:16;;;;;;;20.90;15.90;;;8.40;99.90;10.30;97522.00;;;;5047111;28;20285;-68
2022/11/14 08:22:05;;;;;;;18.13;13.23;;;8.50;99.90;10.20;97525.00;;;;5050924;28;20201;-68
2022/11/14 08:24:53;;;;;;;24.87;15.13;;;8.50;99.90;10.30;97534.00;;;;5040739;28;20236;-67
2022/11/14 08:27:42;;;;;;;22.70;15.30;;;8.60;99.90;10.30;97535.00;;;;5039296;28;20196;-67
2022/11/14 08:30:31;;;;;;;19.77;15.10;;;8.60;99.90;10.30;97531.00;;;;5042635;28;20212;-68
2022/11/14 08:33:21;;;;;;;19.37;14.53;;;9.70;99.90;10.30;97512.00;;;;5050087;28;20216;-68
2022/11/14 08:36:11;;;;;;;17.80;15.30;;;8.70;99.90;10.40;97525.00;;;;5040460;28;20224;-68
2022/11/14 08:38:59;;;;;;;20.57;15.27;;;8.70;99.90;10.30;97531.00;;;;5038693;28;20256;-68
2022/11/14 08:41:49;;;;;;;23.03;16.90;;;8.70;99.90;10.60;97525.00;;;;5041173;28;20200;-68
2022/11/14 08:44:38;;;;;;;18.03;15.83;;;8.80;99.90;10.30;97515.00;;;;5038290;28;20231;-68
2022/11/14 08:47:26;;;;;;;18.27;15.87;;;8.80;99.90;10.50;97516.00;;;;5048649;28;20210;-67
2022/11/14 08:50:17;;;;;;;17.40;15.57;;;8.90;99.90;10.60;97523.00;;;;5040224;28;20621;-68
2022/11/14 08:53:05;;;;;;;21.00;14.63;;;8.90;99.90;10.90;97526.00;;;;5038829;28;20654;-68
2022/11/14 08:55:54;;;;;;;19.93;15.10;;;9.00;99.90;11.20;97526.00;;;;5039458;28;20216;-68
2022/11/14 08:58:43;;;;;;;24.07;16.83;;;9.20;99.90;11.40;97516.00;;;;5050946;28;20212;-68
2022/11/14 09:01:32;;;;;;;22.23;16.13;;;9.30;99.90;11.50;97523.00;;;;5052149;28;20208;-68
2022/11/14 09:04:20;;;;;;;19.97;15.00;;;9.50;99.90;11.60;97523.00;;;;5051313;28;20224;-68
2022/11/14 09:07:10;;;;;;;19.97;16.47;;;9.60;99.90;11.80;97515.00;;;;5046314;28;20197;-67
2022/11/14 09:09:59;;;;;;;24.80;15.93;;;9.70;99.90;12.00;97521.00;;;;5043174;28;20653;-67
2022/11/14 09:12:48;;;;;;;21.87;17.23;;;9.90;99.90;11.80;97516.00;;;;5037319;28;20570;-67
2022/11/14 09:15:37;;;;;;;25.60;18.13;;;10.00;99.90;12.00;97521.00;;;;5048211;28;20286;-67
2022/11/14 09:18:25;;;;;;;21.93;15.53;;;10.10;99.90;12.00;97522.00;;;;5033693;28;20224;-67
2022/11/14 09:21:14;;;;;;;20.20;16.03;;;10.20;99.90;12.00;97514.00;;;;5040750;28;20219;-67
2022/11/14 09:24:05;;;;;;;25.40;16.67;;;10.20;99.90;12.20;97527.00;;;;5043809;28;20619;-67
2022/11/14 09:26:53;;;;;;;21.37;15.27;;;10.30;99.90;12.40;97518.00;;;;5043974;28;20246;-67
2022/11/14 09:29:44;;;;;;;26.33;17.13;;;10.40;99.90;12.60;97513.00;;;;5039631;28;20207;-67
2022/11/14 09:32:33;;;;;;;23.50;16.67;;;10.50;99.90;12.80;97513.00;;;;5038606;28;20201;-67
2022/11/14 09:35:21;;;;;;;22.67;16.40;;;10.70;99.90;13.10;97511.00;;;;5031988;28;20283;-67
2022/11/14 09:38:11;;;;;;;26.23;18.27;;;10.90;99.90;12.80;97503.00;;;;5036974;28;20212;-68
2022/11/14 09:41:27;;;;;;;26.07;17.13;;;10.90;99.90;12.80;97502.00;;;;5040886;28;20197;-68
2022/11/14 09:44:47;;;;;;;24.67;16.73;;;11.00;99.90;13.00;97491.00;;;;5047900;28;20205;-68
2022/11/14 09:47:42;;;;;;;24.17;17.63;;;11.10;99.90;13.40;97485.00;;;;5039128;28;20201;-67
2022/11/14 09:50:37;;;;;;;24.27;16.83;;;11.30;99.90;13.80;97480.00;;;;5048255;28;20212;-68
2022/11/14 09:53:33;;;;;;;24.90;16.90;;;11.50;99.90;14.00;97477.00;;;;5039101;28;20198;-67
2022/11/14 09:56:26;;;;;;;23.57;16.63;;;11.80;99.90;14.40;97482.00;;;;5040698;28;20256;-67
2022/11/14 09:59:16;;;;;;;20.63;15.43;;;12.00;99.90;14.60;97471.00;;;;5042775;28;20684;-67
2022/11/14 10:02:28;;;;;;;27.40;16.93;;;12.30;99.90;14.00;97473.00;;;;5044125;28;20219;-68
2022/11/14 10:05:40;;;;;;;27.00;17.80;;;12.40;99.90;13.70;97459.00;;;;5047077;28;20225;-67
2022/11/14 10:08:47;;;;;;;26.37;16.07;;;12.30;99.90;13.80;97459.00;;;;5040421;28;20216;-67
2022/11/14 10:11:42;;;;;;;26.40;18.03;;;12.30;99.90;14.40;97454.00;;;;5034672;28;20282;-67
2022/11/14 10:15:10;;;;;;;24.67;17.27;;;12.60;99.90;15.50;97452.00;;;;5041413;28;20221;-67
2022/11/14 10:18:17;;;;;;;21.30;15.70;;;13.40;99.90;16.30;97446.00;;;;5040981;28;20266;-67
2022/11/14 10:21:24;;;;;;;31.07;17.80;;;14.70;99.90;16.60;97444.00;;;;5044273;28;20274;-67
2022/11/14 10:24:31;;;;;;;24.00;15.73;;;15.60;99.90;16.90;97444.00;;;;5038762;28;20217;-67
2022/11/14 10:27:28;;;;;;;25.80;18.42;;;16.30;99.90;17.30;97441.00;;;;5035807;28;20445;-68
2022/11/14 10:30:18;;;;;;;23.13;17.07;;;16.90;99.90;17.70;97430.00;;;;5039774;28;20201;-67
2022/11/14 10:33:23;;;;;;;23.33;17.37;;;17.30;99.90;17.80;97438.00;;;;5045037;28;20277;-68
2022/11/14 10:36:21;;;;;;;20.43;16.40;;;17.70;99.90;18.30;97437.00;;;;5038415;28;20648;-67
2022/11/14 10:39:17;;;;;;;22.33;16.70;;;17.80;99.90;18.10;97442.00;;;;5037546;28;20208;-67
2022/11/14 10:42:13;;;;;;;24.43;15.93;;;18.10;99.90;17.50;97463.00;;;;5042597;28;20673;-68
2022/11/14 10:45:18;;;;;;;21.57;15.70;;;17.90;99.90;17.00;97458.00;;;;5030215;28;20723;-68
2022/11/14 10:48:13;;;;;;;24.30;17.35;;;17.20;99.90;16.90;97443.00;;;;5037453;28;20451;-67
2022/11/14 10:51:08;;;;;;;22.13;17.77;;;16.60;99.90;17.20;97449.00;;;;5039690;28;20396;-68
2022/11/14 10:54:02;;;;;;;19.23;15.13;;;16.20;99.90;17.00;97437.00;;;;5031854;28;20237;-68
2022/11/14 10:56:53;;;;;;;22.57;15.47;;;15.90;99.90;16.40;97442.00;;;;5038520;28;20258;-68
2022/11/14 10:59:43;;;;;;;22.23;15.53;;;15.70;99.90;16.70;97408.00;;;;5042159;28;20562;-68
2022/11/14 11:02:50;;;;;;;17.20;12.97;;;15.40;99.90;17.60;97412.00;;;;5039609;28;20217;-67
2022/11/14 11:05:51;;;;;;;21.93;13.37;;;15.70;99.90;18.30;97410.00;;;;5036592;28;20274;-68
2022/11/14 11:11:57;;;;;;;17.50;13.73;;;16.90;99.90;19.20;97396.00;;;;5042511;28;20193;-67
2022/11/14 11:14:48;;;;;;;19.60;13.60;;;17.20;99.90;19.10;97396.00;;;;5039891;28;20228;-68
2022/11/14 11:17:38;;;;;;;16.10;13.20;;;17.60;99.90;18.90;97391.00;;;;5040000;28;20221;-68
2022/11/14 11:20:34;;;;;;;21.17;14.47;;;17.80;99.90;19.30;97395.00;;;;5039378;28;20197;-68
2022/11/14 11:23:26;;;;;;;20.65;15.30;;;17.90;99.90;19.30;97391.00;;;;5043557;28;20475;-68
2022/11/14 11:26:27;;;;;;;18.37;13.83;;;17.90;99.90;18.30;97383.00;;;;5039321;28;20220;-68
2022/11/14 11:29:18;;;;;;;17.87;13.37;;;17.90;98.70;18.90;97392.00;;;;5033641;28;20283;-68
2022/11/14 11:32:09;;;;;;;19.83;14.17;;;17.80;99.30;19.10;97375.00;;;;5037752;28;20212;-68
2022/11/14 11:35:01;;;;;;;16.20;12.87;;;17.80;98.30;18.80;97369.00;;;;5043244;28;20224;-68
2022/11/14 11:37:56;;;;;;;15.70;12.27;;;17.80;98.10;19.30;97362.00;;;;5044067;28;20216;-68
2022/11/14 11:40:48;;;;;;;16.83;12.17;;;17.80;98.70;19.30;97357.00;;;;5041632;28;20197;-68
2022/11/14 11:43:43;;;;;;;19.30;13.33;;;17.90;97.90;19.80;97356.00;;;;5044976;28;20201;-68
2022/11/14 11:46:45;;;;;;;16.60;13.23;;;18.20;98.00;19.50;97352.00;;;;5035396;28;20590;-68
2022/11/14 11:49:43;;;;;;;13.17;11.77;;;18.30;97.50;19.90;97351.00;;;;5045711;28;20268;-68
2022/11/14 11:52:41;;;;;;;16.23;12.57;;;18.50;97.20;19.90;97348.00;;;;5037020;28;20241;-68
2022/11/14 11:55:34;;;;;;;17.57;12.30;;;18.50;96.80;20.50;97343.00;;;;5049661;28;20233;-68
2022/11/14 11:58:28;;;;;;;16.00;11.63;;;18.70;97.00;19.80;97323.00;;;;5037492;28;20200;-68
2022/11/14 12:01:18;;;;;;;16.23;11.70;;;18.80;96.10;19.40;97320.00;;;;5051121;28;20200;-67
2022/11/14 12:04:07;;;;;;;16.00;12.03;;;18.90;95.60;19.30;97314.00;;;;5041004;28;20209;-66
2022/11/14 12:07:04;;;;;;;15.30;11.13;;;18.70;95.20;19.20;97311.00;;;;5048118;28;20205;-67
2022/11/14 12:09:55;;;;;;;14.20;11.27;;;18.60;94.70;17.90;97304.00;;;;5046274;28;20197;-66
2022/11/14 12:13:31;;;;;;;14.10;11.70;;;18.30;94.40;18.30;97315.00;;;;5049300;28;20200;-67
2022/11/14 12:16:35;;;;;;;14.80;11.47;;;18.00;95.10;18.10;97301.00;;;;5042717;28;20350;-67
2022/11/14 12:19:41;;;;;;;13.37;10.40;;;17.60;95.40;19.00;97294.00;;;;5044220;28;20246;-67
2022/11/14 12:23:01;;;;;;;13.43;10.80;;;17.70;96.30;18.60;97291.00;;;;5037448;28;20197;-67
2022/11/14 12:26:23;;;;;;;13.17;10.57;;;17.70;95.60;20.60;97290.00;;;;5039325;28;20233;-67
2022/11/14 12:29:37;;;;;;;14.27;10.40;;;18.20;95.90;19.30;97283.00;;;;5050935;28;20618;-68
2022/11/14 12:32:32;;;;;;;10.40;8.30;;;18.50;94.20;19.70;97274.00;;;;5041145;28;20558;-67
2022/11/14 12:35:24;;;;;;;10.43;8.50;;;18.70;94.30;21.70;97294.00;;;;5045820;28;20263;-67
2022/11/14 12:38:16;;;;;;;12.57;9.37;;;19.10;94.50;21.90;97284.00;;;;5045181;28;20208;-67
2022/11/14 12:41:07;;;;;;;10.90;8.77;;;19.50;93.30;21.50;97281.00;;;;5047849;28;20576;-67